createdAt,value
2017-07-18T00:02:14.153Z,78.53
2017-07-18T00:04:41.631Z,77.81
2017-07-18T00:07:09.117Z,78.89
2017-07-18T00:09:37.434Z,78.50
2017-07-18T00:12:04.954Z,77.46
2017-07-18T00:14:32.560Z,77.35
2017-07-18T00:17:00.017Z,77.04
2017-07-18T00:19:27.504Z,76.90
2017-07-18T00:21:54.961Z,75.71
2017-07-18T00:24:22.542Z,76.22
2017-07-18T00:26:50.017Z,76.64
2017-07-18T00:29:17.497Z,77.38
2017-07-18T00:31:45.021Z,78.03
2017-07-18T00:34:12.507Z,78.05
2017-07-18T00:36:39.975Z,76.67
2017-07-18T00:39:07.455Z,77.64
2017-07-18T00:41:34.949Z,76.11
2017-07-18T00:44:02.453Z,77.59
2017-07-18T00:46:33.734Z,79.08
2017-07-18T00:49:01.289Z,78.88
2017-07-18T00:51:28.739Z,78.37
2017-07-18T00:53:56.220Z,78.38
2017-07-18T00:56:23.672Z,78.41
2017-07-18T00:58:51.599Z,79.20
2017-07-18T01:01:19.078Z,78.82
2017-07-18T01:03:46.509Z,78.82
2017-07-18T01:06:13.999Z,78.45
2017-07-18T01:08:41.463Z,78.84
2017-07-18T01:11:09.014Z,79.36
2017-07-18T01:13:36.529Z,78.64
2017-07-18T01:16:03.986Z,78.60
2017-07-18T01:18:31.440Z,78.92
2017-07-18T01:20:58.906Z,78.49
2017-07-18T01:23:27.083Z,79.36
2017-07-18T01:25:54.555Z,79.27
2017-07-18T01:28:22.026Z,77.67
2017-07-18T01:30:49.525Z,79.37
2017-07-18T01:33:16.975Z,79.32
2017-07-18T01:35:44.602Z,79.68
2017-07-18T01:38:12.070Z,79.30
2017-07-18T01:40:39.540Z,79.73
2017-07-18T01:43:06.987Z,79.75
2017-07-18T01:45:34.508Z,80.10
2017-07-18T01:48:01.947Z,80.33
2017-07-18T01:50:29.454Z,80.54
2017-07-18T01:52:56.943Z,80.38
2017-07-18T01:55:24.460Z,80.39
2017-07-18T01:57:52.006Z,80.20
2017-07-18T02:00:19.476Z,80.64
2017-07-18T02:02:47.038Z,79.12
2017-07-18T02:05:14.591Z,79.73
2017-07-18T02:07:42.138Z,81.04
2017-07-18T02:10:09.579Z,80.10
2017-07-18T02:12:37.081Z,79.87
2017-07-18T02:15:04.610Z,83.02
2017-07-18T02:17:32.079Z,81.45
2017-07-18T02:19:59.535Z,81.78
2017-07-18T02:22:27.098Z,81.09
2017-07-18T02:24:54.649Z,81.96
2017-07-18T02:27:22.123Z,79.75
2017-07-18T02:29:49.609Z,81.15
2017-07-18T02:32:17.092Z,81.18
2017-07-18T02:34:44.552Z,80.37
2017-07-18T02:37:12.030Z,83.63
2017-07-18T02:39:39.475Z,81.20
2017-07-18T02:42:06.956Z,81.60
2017-07-18T02:44:34.523Z,82.08
2017-07-18T02:47:01.995Z,81.20
2017-07-18T02:49:29.448Z,81.57
2017-07-18T02:51:56.915Z,81.37
2017-07-18T02:54:24.426Z,80.65
2017-07-18T02:56:52.012Z,80.01
2017-07-18T02:59:19.456Z,80.74
2017-07-18T03:01:46.903Z,80.81
2017-07-18T03:04:14.459Z,81.65
2017-07-18T03:06:41.918Z,81.88
2017-07-18T03:09:09.379Z,82.04
2017-07-18T03:11:36.819Z,81.46
2017-07-18T03:14:04.386Z,81.44
2017-07-18T03:16:31.832Z,81.74
2017-07-18T03:18:59.408Z,82.51
2017-07-18T03:21:26.851Z,82.25
2017-07-18T03:23:54.414Z,83.15
2017-07-18T03:26:21.872Z,82.10
2017-07-18T03:28:49.446Z,81.68
2017-07-18T03:31:16.896Z,81.13
2017-07-18T03:33:44.461Z,81.23
2017-07-18T03:36:11.909Z,81.56
2017-07-18T03:38:39.395Z,81.57
2017-07-18T03:41:06.848Z,82.01
2017-07-18T03:43:34.393Z,82.07
2017-07-18T03:46:01.848Z,83.00
2017-07-18T03:48:29.387Z,82.63
2017-07-18T03:50:56.851Z,83.06
2017-07-18T03:53:25.336Z,82.61
2017-07-18T03:55:52.769Z,82.43
2017-07-18T03:58:20.379Z,82.88
2017-07-18T04:00:47.819Z,83.12
2017-07-18T04:03:15.386Z,83.23
2017-07-18T04:05:42.915Z,83.27
2017-07-18T04:08:10.383Z,82.96
2017-07-18T04:10:37.843Z,82.80
2017-07-18T04:13:05.294Z,82.40
2017-07-18T04:15:33.110Z,81.30
2017-07-18T04:18:00.622Z,82.82
2017-07-18T04:20:28.109Z,82.68
2017-07-18T04:22:55.594Z,82.22
2017-07-18T04:25:23.196Z,82.40
2017-07-18T04:27:50.683Z,81.89
2017-07-18T04:30:18.207Z,82.25
2017-07-18T04:32:45.659Z,83.16
2017-07-18T04:35:13.131Z,83.25
2017-07-18T04:37:40.576Z,83.08
2017-07-18T04:40:08.262Z,82.97
2017-07-18T04:42:35.806Z,82.73
2017-07-18T04:45:03.308Z,83.43
2017-07-18T04:47:30.801Z,81.70
2017-07-18T04:49:58.428Z,82.57
2017-07-18T04:52:25.934Z,82.60
2017-07-18T04:54:53.482Z,82.37
2017-07-18T04:57:20.913Z,81.69
2017-07-18T04:59:48.515Z,80.93
2017-07-18T05:02:16.095Z,81.05
2017-07-18T05:04:43.574Z,80.51
2017-07-18T05:07:11.076Z,80.53
2017-07-18T05:09:38.514Z,80.89
2017-07-18T05:12:06.000Z,80.65
2017-07-18T05:14:33.553Z,80.01
2017-07-18T05:17:01.116Z,79.11
2017-07-18T05:19:28.563Z,77.83
2017-07-18T05:21:56.032Z,76.29
2017-07-18T05:24:23.596Z,75.46
2017-07-18T05:26:51.073Z,74.76
2017-07-18T05:29:18.529Z,74.93
2017-07-18T05:31:46.005Z,74.07
2017-07-18T05:34:13.437Z,73.59
2017-07-18T05:36:40.960Z,72.36
2017-07-18T05:39:08.408Z,70.48
2017-07-18T05:41:35.973Z,70.73
2017-07-18T05:44:03.426Z,69.80
2017-07-18T05:46:30.997Z,69.70
2017-07-18T05:48:58.430Z,69.22
2017-07-18T05:51:25.895Z,67.09
2017-07-18T05:53:53.342Z,66.06
2017-07-18T05:56:20.841Z,65.16
2017-07-18T05:58:48.371Z,64.35
2017-07-18T06:01:15.823Z,63.32
2017-07-18T06:03:43.295Z,64.75
2017-07-18T06:06:10.778Z,64.83
2017-07-18T06:08:38.242Z,65.48
2017-07-18T06:11:05.762Z,64.55
2017-07-18T06:13:33.218Z,63.16
2017-07-18T06:16:00.653Z,62.62
2017-07-18T06:18:28.142Z,61.76
2017-07-18T06:20:55.591Z,62.43
2017-07-18T06:23:23.137Z,62.24
2017-07-18T06:25:50.574Z,63.25
2017-07-18T06:28:18.037Z,61.05
2017-07-18T06:30:45.506Z,58.47
2017-07-18T06:33:13.064Z,57.64
2017-07-18T06:35:40.515Z,58.37
2017-07-18T06:38:08.100Z,59.11
2017-07-18T06:40:35.653Z,60.01
2017-07-18T06:43:03.506Z,59.55
2017-07-18T06:45:30.942Z,60.38
2017-07-18T06:47:58.741Z,58.95
2017-07-18T06:50:26.204Z,59.00
2017-07-18T06:52:53.705Z,60.49
2017-07-18T06:55:21.239Z,60.72
2017-07-18T06:57:48.758Z,60.66
2017-07-18T07:00:16.473Z,60.80
2017-07-18T07:02:44.007Z,60.79
2017-07-18T07:05:11.539Z,61.86
2017-07-18T07:07:38.969Z,62.50
2017-07-18T07:10:06.423Z,62.66
2017-07-18T07:12:33.874Z,62.03
2017-07-18T07:15:01.384Z,62.47
2017-07-18T07:17:29.107Z,62.25
2017-07-18T07:19:56.647Z,63.08
2017-07-18T07:22:24.183Z,63.56
2017-07-18T07:24:51.661Z,63.12
2017-07-18T07:27:19.128Z,61.85
2017-07-18T07:29:47.039Z,62.41
2017-07-18T07:32:14.577Z,62.34
2017-07-18T07:34:42.068Z,62.55
2017-07-18T07:37:09.533Z,62.00
2017-07-18T07:39:37.374Z,61.14
2017-07-18T07:42:04.985Z,61.01
2017-07-18T07:44:32.442Z,61.84
2017-07-18T07:46:59.944Z,60.13
2017-07-18T07:49:27.424Z,60.86
2017-07-18T07:51:54.867Z,60.86
2017-07-18T07:54:22.565Z,60.16
2017-07-18T07:56:50.129Z,61.05
2017-07-18T07:59:17.637Z,59.67
2017-07-18T08:01:45.155Z,58.86
2017-07-18T08:04:12.706Z,59.91
2017-07-18T08:06:40.501Z,58.80
2017-07-18T08:09:07.967Z,58.68
2017-07-18T08:11:35.411Z,57.97
2017-07-18T08:14:03.019Z,58.96
2017-07-18T08:16:30.461Z,57.91
2017-07-18T08:18:57.937Z,57.67
2017-07-18T08:21:25.412Z,58.64
2017-07-18T08:23:52.917Z,57.94
2017-07-18T08:26:20.373Z,58.34
2017-07-18T08:28:47.880Z,57.00
2017-07-18T08:31:15.383Z,58.61
2017-07-18T08:33:42.845Z,57.85
2017-07-18T08:36:10.310Z,56.51
2017-07-18T08:38:37.750Z,55.90
2017-07-18T08:41:05.223Z,56.47
2017-07-18T08:43:32.755Z,57.28
2017-07-18T08:46:00.214Z,56.55
2017-07-18T08:48:27.670Z,57.01
2017-07-18T08:50:55.250Z,56.84
2017-07-18T08:53:22.701Z,56.35
2017-07-18T08:55:50.161Z,55.85
2017-07-18T08:58:17.593Z,55.24
2017-07-18T09:00:45.076Z,55.02
2017-07-18T09:03:12.526Z,55.16
2017-07-18T09:05:40.084Z,55.02
2017-07-18T09:08:07.630Z,55.00
2017-07-18T09:10:35.196Z,55.03
2017-07-18T09:13:02.647Z,53.82
2017-07-18T09:15:30.219Z,54.36
2017-07-18T09:17:57.758Z,53.80
2017-07-18T09:20:25.233Z,53.97
2017-07-18T09:22:52.784Z,52.51
2017-07-18T09:25:20.226Z,52.75
2017-07-18T09:27:47.802Z,53.02
2017-07-18T09:30:15.260Z,52.13
2017-07-18T09:32:42.821Z,52.06
2017-07-18T09:35:10.369Z,51.77
2017-07-18T09:37:37.938Z,51.85
2017-07-18T09:40:05.506Z,52.03
2017-07-18T09:42:32.966Z,52.74
2017-07-18T09:45:00.497Z,51.88
2017-07-18T09:47:27.954Z,51.71
2017-07-18T09:49:55.385Z,52.19
2017-07-18T09:52:22.852Z,52.28
2017-07-18T09:54:50.289Z,51.87
2017-07-18T09:57:17.786Z,51.82
2017-07-18T09:59:45.225Z,52.08
2017-07-18T10:02:12.711Z,51.24
2017-07-18T10:04:40.174Z,50.80
2017-07-18T10:07:07.710Z,50.57
2017-07-18T10:09:35.282Z,49.67
2017-07-18T10:12:02.727Z,50.00
2017-07-18T10:14:30.300Z,49.46
2017-07-18T10:16:57.843Z,49.38
2017-07-18T10:19:25.666Z,49.32
2017-07-18T10:21:53.234Z,47.91
2017-07-18T10:24:20.707Z,47.88
2017-07-18T10:26:48.146Z,47.72
2017-07-18T10:29:15.645Z,48.06
2017-07-18T10:31:43.336Z,48.20
2017-07-18T10:34:10.873Z,48.28
2017-07-18T10:36:38.313Z,48.73
2017-07-18T10:39:05.785Z,48.78
2017-07-18T10:41:33.243Z,49.25
2017-07-18T10:44:00.947Z,47.76
2017-07-18T10:46:28.549Z,47.12
2017-07-18T10:48:55.982Z,47.48
2017-07-18T10:51:23.525Z,47.46
2017-07-18T10:53:51.033Z,45.71
2017-07-18T10:56:18.583Z,45.88
2017-07-18T10:58:46.033Z,46.31
2017-07-18T11:01:14.409Z,47.62
2017-07-18T11:03:41.860Z,46.57
2017-07-18T11:06:09.289Z,45.90
2017-07-18T11:08:36.763Z,47.09
2017-07-18T11:11:04.305Z,46.41
2017-07-18T11:13:31.760Z,46.64
2017-07-18T11:15:59.205Z,43.59
2017-07-18T11:18:26.718Z,44.36
2017-07-18T11:20:54.154Z,44.97
2017-07-18T11:23:21.636Z,47.20
2017-07-18T11:25:49.191Z,46.33
2017-07-18T11:28:16.653Z,45.59
2017-07-18T11:30:44.104Z,45.84
2017-07-18T11:33:11.576Z,45.10
2017-07-18T11:35:39.113Z,45.72
2017-07-18T11:38:06.542Z,44.21
2017-07-18T11:40:34.000Z,43.53
2017-07-18T11:43:01.471Z,42.70
2017-07-18T11:45:29.032Z,42.01
2017-07-18T11:47:56.490Z,42.23
2017-07-18T11:50:23.945Z,42.92
2017-07-18T11:52:51.409Z,43.53
2017-07-18T11:55:19.034Z,43.42
2017-07-18T11:57:46.510Z,44.83
2017-07-18T12:00:13.977Z,44.79
2017-07-18T12:02:41.450Z,45.06
2017-07-18T12:05:08.915Z,45.24
2017-07-18T12:07:36.790Z,43.21
2017-07-18T12:10:04.333Z,42.95
2017-07-18T12:12:31.790Z,42.30
2017-07-18T12:14:59.350Z,43.94
2017-07-18T12:17:26.923Z,43.03
2017-07-18T12:19:54.481Z,43.21
2017-07-18T12:22:21.937Z,44.48
2017-07-18T12:24:49.379Z,43.22
2017-07-18T12:27:16.841Z,43.16
2017-07-18T12:29:44.286Z,43.75
2017-07-18T12:32:11.779Z,43.48
2017-07-18T12:34:39.226Z,41.89
2017-07-18T12:37:06.706Z,43.58
2017-07-18T12:39:34.217Z,44.36
2017-07-18T12:42:01.673Z,43.74
2017-07-18T12:44:29.129Z,42.81
2017-07-18T12:46:56.614Z,42.14
2017-07-18T12:49:24.142Z,42.33
2017-07-18T12:51:51.692Z,43.21
2017-07-18T12:54:19.221Z,42.75
2017-07-18T12:56:46.710Z,43.29
2017-07-18T12:59:14.183Z,43.21
2017-07-18T13:01:41.733Z,42.27
2017-07-18T13:04:09.278Z,42.93
2017-07-18T13:06:37.028Z,43.00
2017-07-18T13:09:04.508Z,42.13
2017-07-18T13:11:31.955Z,41.60
2017-07-18T13:13:59.417Z,40.92
2017-07-18T13:16:26.886Z,41.72
2017-07-18T13:18:54.353Z,42.17
2017-07-18T13:21:21.907Z,41.87
2017-07-18T13:23:49.448Z,42.25
2017-07-18T13:26:16.907Z,42.27
2017-07-18T13:28:44.498Z,42.23
2017-07-18T13:31:12.014Z,42.11
2017-07-18T13:33:39.462Z,42.23
2017-07-18T13:36:07.043Z,41.75
2017-07-18T13:38:34.608Z,40.93
2017-07-18T13:41:02.074Z,42.38
2017-07-18T13:43:29.523Z,42.18
2017-07-18T13:45:57.066Z,40.64
2017-07-18T13:48:24.617Z,41.67
2017-07-18T13:50:52.177Z,40.70
2017-07-18T13:53:20.993Z,41.76
2017-07-18T13:55:48.465Z,41.31
2017-07-18T13:58:15.976Z,40.24
2017-07-18T14:00:43.433Z,40.32
2017-07-18T14:03:10.961Z,39.89
2017-07-18T14:05:38.599Z,39.70
2017-07-18T14:08:06.062Z,40.08
2017-07-18T14:10:33.522Z,39.59
2017-07-18T14:13:01.035Z,39.14
2017-07-18T14:15:28.470Z,38.82
2017-07-18T14:17:55.921Z,39.14
2017-07-18T14:20:23.396Z,39.67
2017-07-18T14:22:50.865Z,40.51
2017-07-18T14:25:18.306Z,41.05
2017-07-18T14:27:45.785Z,41.29
2017-07-18T14:30:13.240Z,40.48
2017-07-18T14:32:40.688Z,41.74
2017-07-18T14:35:08.155Z,40.30
2017-07-18T14:37:35.713Z,40.42
2017-07-18T14:40:03.183Z,41.08
2017-07-18T14:42:30.619Z,39.68
2017-07-18T14:44:58.166Z,39.42
2017-07-18T14:47:25.635Z,39.41
2017-07-18T14:49:53.200Z,40.58
2017-07-18T14:52:20.668Z,39.50
2017-07-18T14:54:48.121Z,38.46
2017-07-18T14:57:15.664Z,38.68
2017-07-18T14:59:43.132Z,39.16
2017-07-18T15:02:10.579Z,39.92
2017-07-18T15:04:38.136Z,39.82
2017-07-18T15:07:05.574Z,39.95
2017-07-18T15:09:33.026Z,38.87
2017-07-18T15:12:00.505Z,40.31
2017-07-18T15:14:28.073Z,39.32
2017-07-18T15:16:55.513Z,39.63
2017-07-18T15:19:23.003Z,40.30
2017-07-18T15:21:50.504Z,40.48
2017-07-18T15:24:17.950Z,40.58
2017-07-18T15:26:45.415Z,40.11
2017-07-18T15:29:12.851Z,40.54
2017-07-18T15:31:40.361Z,41.48
2017-07-18T15:34:07.901Z,41.52
2017-07-18T15:36:35.481Z,41.51
2017-07-18T15:39:02.926Z,42.77
2017-07-18T15:41:30.494Z,42.04
2017-07-18T15:43:57.934Z,43.02
2017-07-18T15:46:25.406Z,41.56
2017-07-18T15:48:52.883Z,40.67
2017-07-18T15:51:20.417Z,41.21
2017-07-18T15:53:47.874Z,40.95
2017-07-18T15:56:15.422Z,40.83
2017-07-18T15:58:42.882Z,40.30
2017-07-18T16:01:10.458Z,40.19
2017-07-18T16:03:38.003Z,40.85
2017-07-18T16:06:05.562Z,40.71
2017-07-18T16:08:33.079Z,40.58
2017-07-18T16:11:00.548Z,41.16
2017-07-18T16:13:28.061Z,41.83
2017-07-18T16:15:56.135Z,41.84
2017-07-18T16:18:23.657Z,41.33
2017-07-18T16:20:51.089Z,41.35
2017-07-18T16:23:18.579Z,42.55
2017-07-18T16:25:46.012Z,41.81
2017-07-18T16:28:13.703Z,42.26
2017-07-18T16:30:41.259Z,42.61
2017-07-18T16:33:08.716Z,42.03
2017-07-18T16:35:36.177Z,42.48
2017-07-18T16:38:03.645Z,41.98
2017-07-18T16:40:31.081Z,42.37
2017-07-18T16:42:58.634Z,42.28
2017-07-18T16:45:26.114Z,42.19
2017-07-18T16:47:53.575Z,41.82
2017-07-18T16:50:21.168Z,41.63
2017-07-18T16:52:48.641Z,41.88
2017-07-18T16:55:16.094Z,41.52
2017-07-18T16:57:43.556Z,41.84
2017-07-18T17:00:11.064Z,42.13
2017-07-18T17:02:38.598Z,42.53
2017-07-18T17:05:06.070Z,42.63
2017-07-18T17:07:33.610Z,41.90
2017-07-18T17:10:01.161Z,42.52
2017-07-18T17:12:28.594Z,44.18
2017-07-18T17:14:56.552Z,43.22
2017-07-18T17:17:24.027Z,43.27
2017-07-18T17:19:51.482Z,42.26
2017-07-18T17:22:18.929Z,42.63
2017-07-18T17:24:46.389Z,43.97
2017-07-18T17:27:13.904Z,44.46
2017-07-18T17:29:41.441Z,45.05
2017-07-18T17:32:08.921Z,44.63
2017-07-18T17:34:36.382Z,44.43
2017-07-18T17:37:03.902Z,45.08
2017-07-18T17:39:31.382Z,45.50
2017-07-18T17:41:58.832Z,45.79
2017-07-18T17:44:26.286Z,46.21
2017-07-18T17:46:53.836Z,45.92
2017-07-18T17:49:21.311Z,46.13
2017-07-18T17:51:48.850Z,46.46
2017-07-18T17:54:16.408Z,46.74
2017-07-18T17:56:43.858Z,47.11
2017-07-18T17:59:11.356Z,47.71
2017-07-18T18:01:38.869Z,47.62
2017-07-18T18:04:06.342Z,48.20
2017-07-18T18:06:33.805Z,48.40
2017-07-18T18:09:01.262Z,48.95
2017-07-18T18:11:28.719Z,48.83
2017-07-18T18:13:56.276Z,49.39
2017-07-18T18:16:23.756Z,50.02
2017-07-18T18:18:51.293Z,51.77
2017-07-18T18:21:18.860Z,51.80
2017-07-18T18:23:46.386Z,52.27
2017-07-18T18:26:14.322Z,51.89
2017-07-18T18:28:41.881Z,52.60
2017-07-18T18:31:09.397Z,52.89
2017-07-18T18:33:36.838Z,52.37
2017-07-18T18:36:04.396Z,53.22
2017-07-18T18:38:31.930Z,52.71
2017-07-18T18:40:59.421Z,52.99
2017-07-18T18:43:26.903Z,53.29
2017-07-18T18:45:54.421Z,53.39
2017-07-18T18:48:21.883Z,53.09
2017-07-18T18:50:49.449Z,53.14
2017-07-18T18:53:16.998Z,53.07
2017-07-18T18:55:44.465Z,52.76
2017-07-18T18:58:11.933Z,52.55
2017-07-18T19:00:39.374Z,52.83
2017-07-18T19:03:06.918Z,53.03
2017-07-18T19:05:34.388Z,53.10
2017-07-18T19:08:01.875Z,52.60
2017-07-18T19:10:29.386Z,53.01
2017-07-18T19:12:56.851Z,53.31
2017-07-18T19:15:24.331Z,53.17
2017-07-18T19:17:51.778Z,53.30
2017-07-18T19:20:19.238Z,53.55
2017-07-18T19:22:46.683Z,54.14
2017-07-18T19:25:14.149Z,54.16
2017-07-18T19:27:41.602Z,54.12
2017-07-18T19:30:09.108Z,54.29
2017-07-18T19:32:36.606Z,54.70
2017-07-18T19:35:04.079Z,54.49
2017-07-18T19:37:31.624Z,54.78
2017-07-18T19:39:59.672Z,54.44
2017-07-18T19:42:27.210Z,54.62
2017-07-18T19:44:54.665Z,54.85
2017-07-18T19:47:22.158Z,55.06
2017-07-18T19:49:49.607Z,54.61
2017-07-18T19:52:17.344Z,54.82
2017-07-18T19:54:44.851Z,54.77
2017-07-18T19:57:12.373Z,55.00
2017-07-18T19:59:39.859Z,55.32
2017-07-18T20:02:07.322Z,54.88
2017-07-18T20:04:35.246Z,55.09
2017-07-18T20:07:02.740Z,55.30
2017-07-18T20:09:30.191Z,54.91
2017-07-18T20:11:57.664Z,55.20
2017-07-18T20:14:25.108Z,54.89
2017-07-18T20:16:52.871Z,55.05
2017-07-18T20:19:20.435Z,54.97
2017-07-18T20:21:47.903Z,54.78
2017-07-18T20:24:15.355Z,54.90
2017-07-18T20:26:42.874Z,54.85
2017-07-18T20:29:10.313Z,54.82
2017-07-18T20:31:37.826Z,54.90
2017-07-18T20:34:05.287Z,55.27
2017-07-18T20:36:32.835Z,55.69
2017-07-18T20:39:00.322Z,55.40
2017-07-18T20:41:28.254Z,55.36
2017-07-18T20:43:55.809Z,55.38
2017-07-18T20:46:23.263Z,55.46
2017-07-18T20:48:50.778Z,55.14
2017-07-18T20:51:18.297Z,55.24
2017-07-18T20:53:45.800Z,55.11
2017-07-18T20:56:13.253Z,55.17
2017-07-18T20:58:40.748Z,55.18
2017-07-18T21:01:08.195Z,54.94
2017-07-18T21:03:35.766Z,55.34
2017-07-18T21:06:03.795Z,55.00
2017-07-18T21:08:31.263Z,54.80
2017-07-18T21:10:58.751Z,55.94
2017-07-18T21:13:26.205Z,56.06
2017-07-18T21:15:53.642Z,57.42
2017-07-18T21:18:22.242Z,57.67
2017-07-18T21:20:49.677Z,58.72
2017-07-18T21:23:17.115Z,59.21
2017-07-18T21:25:44.573Z,59.28
2017-07-18T21:28:12.133Z,59.13
2017-07-18T21:30:39.599Z,60.30
2017-07-18T21:33:07.063Z,60.72
2017-07-18T21:35:34.548Z,60.65
2017-07-18T21:38:01.981Z,61.06
2017-07-18T21:40:29.441Z,61.88
2017-07-18T21:42:57.190Z,61.95
2017-07-18T21:45:24.641Z,62.72
2017-07-18T21:47:52.086Z,63.17
2017-07-18T21:50:19.545Z,62.98
2017-07-18T21:52:47.106Z,63.30
2017-07-18T21:55:16.235Z,62.78
2017-07-18T21:57:43.690Z,62.32
2017-07-18T22:00:11.161Z,61.70
2017-07-18T22:02:38.614Z,59.64
2017-07-18T22:05:06.050Z,61.21
2017-07-18T22:07:33.511Z,61.76
2017-07-18T22:10:00.992Z,62.08
2017-07-18T22:12:28.542Z,62.92
2017-07-18T22:14:55.982Z,63.11
2017-07-18T22:17:23.457Z,63.79
2017-07-18T22:19:50.915Z,63.17
2017-07-18T22:22:18.386Z,63.67
2017-07-18T22:24:45.842Z,63.56
2017-07-18T22:27:13.390Z,63.70
2017-07-18T22:29:40.931Z,64.02
2017-07-18T22:32:08.485Z,63.36
2017-07-18T22:34:35.956Z,63.46
2017-07-18T22:37:03.512Z,64.69
2017-07-18T22:39:30.960Z,64.28
2017-07-18T22:41:58.536Z,64.64
2017-07-18T22:44:25.970Z,64.68
2017-07-18T22:46:53.541Z,64.01
2017-07-18T22:49:20.984Z,63.94
2017-07-18T22:51:48.447Z,64.96
2017-07-18T22:54:16.502Z,64.86
2017-07-18T22:56:43.978Z,64.44
2017-07-18T22:59:11.437Z,64.44
2017-07-18T23:01:38.894Z,63.18
2017-07-18T23:04:06.365Z,62.31
2017-07-18T23:06:34.220Z,63.78
2017-07-18T23:09:01.732Z,63.84
2017-07-18T23:11:29.243Z,65.98
2017-07-18T23:13:56.724Z,65.20
2017-07-18T23:16:24.256Z,65.86
2017-07-18T23:18:51.797Z,65.20
2017-07-18T23:21:19.270Z,65.61
2017-07-18T23:23:46.734Z,66.06
2017-07-18T23:26:14.174Z,67.39
2017-07-18T23:28:41.741Z,66.17
2017-07-18T23:31:09.300Z,65.76
2017-07-18T23:33:36.752Z,66.17
2017-07-18T23:36:04.212Z,66.39
2017-07-18T23:38:31.681Z,66.21
2017-07-18T23:40:59.151Z,67.33
2017-07-18T23:43:26.688Z,67.06
2017-07-18T23:45:54.243Z,67.58
2017-07-18T23:48:21.706Z,68.40
2017-07-18T23:50:49.259Z,68.66
2017-07-18T23:53:16.715Z,68.11
2017-07-18T23:55:44.214Z,68.89
2017-07-18T23:58:11.713Z,68.41
